Latest Coastal Weather Observations for Lombadina

IDW60701

Issued at 12:12 am WST Saturday 28 May 2016 (issued every 10 minutes, with the page automatically refreshed every 10 minutes)

About coastal observations | Map of coastal stations | Coastal observations for WA | Marine services | Other Formats
Station Details ID: 503016 Name: LOMBADINA AIRSTRIP Lat: -16.52 Lon: 122.92 Height: 42.0 m
Data from the previous 72 hours. | See also: Recent months for locations in Western Australia
Date/Time
WST
Temp

°C
Wind Pressure Rain
since 9am
mm
Weather Cloud Vis
km
Sea
Height
m
Swell
Dir
 
Speed
knots
Gust
knots
hPa Trend Height
m
Period
s
Dir
28/12:00am 24.8 SSW 3 5 1013.6 - 0.0 - - 10 - - - -
 
Date/Time
WST
Temp

°C
Wind Pressure Rain
since 9am
mm
Weather Cloud Vis
km
Sea
Height
m
Swell
Dir
 
Speed
knots
Gust
knots
hPa Trend Height
m
Period
s
Dir
27/11:30pm 25.0 SW 3 6 1013.6 - 0.0 - - 10 - - - -
27/11:00pm 25.2 SW 3 6 1013.6 - 0.0 - - 10 - - - -
27/10:30pm 25.1 SW 3 6 1013.7 - 0.0 - - 10 - - - -
27/10:00pm 24.9 SW 3 5 1013.8 - 0.0 - - 10 - - - -
27/09:30pm 25.2 SW 3 5 1013.8 - 0.0 - - 10 - - - -
27/09:00pm 25.0 SW 3 5 1013.7 - 0.0 - - 10 - - - -
27/08:30pm 25.0 SW 2 4 1013.7 - 0.0 - - 10 - - - -
27/08:00pm 25.5 WSW 3 5 1013.6 - 0.0 - - 10 - - - -
27/07:30pm 25.8 SW 3 5 1013.3 - 0.0 - - 10 - - - -
27/07:00pm 26.0 WSW 2 4 1013.3 - 0.0 - - 10 - - - -
27/06:30pm 26.6 WSW 3 6 1013.1 - 0.0 - - 10 - - - -
27/06:00pm 27.0 SW 3 5 1013.1 - 0.0 - - 10 - - - -
27/05:30pm 27.8 WSW 3 4 1013.0 - 0.0 - - 10 - - - -
27/05:00pm 28.8 WSW 4 7 1012.8 - 0.0 - - 10 - - - -
27/04:30pm 29.6 WSW 5 9 1012.4 - 0.0 - - 10 - - - -
27/04:00pm 30.5 WSW 5 11 1012.2 - 0.0 - - 10 - - - -
27/03:30pm 31.1 ESE 5 8 1011.9 - 0.0 - Partly cloudy 10 - - - -
27/03:00pm 31.4 ESE 5 10 1012.0 - 0.0 - - 10 - - - -
27/02:30pm 32.2 ESE 6 10 1012.0 - 0.0 - - 10 - - - -
27/02:00pm 32.2 ESE 6 10 1012.1 - 0.0 - - 10 - - - -
27/01:30pm 32.4 ESE 7 12 1012.2 - 0.0 - - 10 - - - -
27/01:00pm 32.3 ESE 7 13 1012.6 - 0.0 - - 10 - - - -
27/12:30pm 32.0 SE 8 15 1012.9 - 0.0 - - 10 - - - -
27/12:00pm 31.1 ESE 8 14 1013.3 - 0.0 - - 10 - - - -
27/11:30am 31.2 SE 7 12 1014.0 - 0.0 - - 10 - - - -
27/11:00am 31.6 ESE 6 13 1014.2 - 0.0 - - 10 - - - -
27/10:30am 30.7 ESE 7 12 1014.7 - 0.0 - - 10 - - - -
27/10:00am 30.6 ESE 7 11 1015.0 - 0.0 - - 10 - - - -
27/09:30am 30.4 SE 5 8 1015.3 - 0.0 - - 10 - - - -
27/09:00am 28.4 SE 4 7 1015.6 - 0.0 - Partly cloudy 10 - - - -
27/08:30am 28.0 SSE 4 9 1015.7 - 0.0 - Partly cloudy 10 - - - -
27/08:00am 26.8 SSE 4 6 1015.6 - 0.0 - - 10 - - - -
27/07:30am 25.7 SE 2 4 1015.3 - 0.0 - - 10 - - - -
27/07:00am 24.7 E 1 3 1014.9 - 0.0 - - 10 - - - -
27/06:30am 23.0 SSE 1 2 1014.7 - 0.0 - - 10 - - - -
27/06:00am 22.1 S 2 4 1014.2 - 0.0 - - 10 - - - -
27/05:30am 23.0 SE 2 3 1013.9 - 0.0 - - 10 - - - -
27/05:00am 23.3 SE 3 4 1014.0 - 0.0 - - 10 - - - -
27/04:30am 24.7 SSE 2 5 1013.9 - 0.0 - - 10 - - - -
27/04:00am 24.8 S 3 6 1013.8 - 0.0 - - 10 - - - -
27/03:30am 25.1 S 3 6 1013.7 - 0.0 - Partly cloudy 10 - - - -
27/03:00am 24.7 SSW 3 6 1013.9 - 0.0 - Mostly cloudy 10 - - - -
27/02:30am 23.9 SSW 2 4 1014.0 - 0.0 - Cloudy 10 - - - -
27/02:00am 23.2 S 2 4 1014.1 - 0.0 - Partly cloudy 10 - - - -
27/01:30am 23.4 SSW 3 4 1014.2 - 0.0 - - 10 - - - -
27/01:00am 23.3 SSW 2 4 1014.4 - 0.0 - - 10 - - - -
27/12:30am 23.8 S 2 4 1014.4 - 0.0 - - 10 - - - -
27/12:00am 23.5 S 2 3 1014.1 - 0.0 - - 10 - - - -
 
Date/Time
WST
Temp

°C
Wind Pressure Rain
since 9am
mm
Weather Cloud Vis
km
Sea
Height
m
Swell
Dir
 
Speed
knots
Gust
knots
hPa Trend Height
m
Period
s
Dir
26/11:30pm 23.8 SSW 2 3 1014.1 - 0.0 - - 10 - - - -
26/11:00pm 23.8 SSW 1 3 1014.0 - 0.0 - - 10 - - - -
26/10:30pm 23.7 SW 1 3 1014.0 - 0.0 - - 10 - - - -
26/10:00pm 23.9 SW 2 3 1014.1 - 0.0 - - 10 - - - -
26/09:30pm 24.3 SW 2 3 1013.9 - 0.0 - - 10 - - - -
26/09:00pm 25.3 WSW 3 5 1014.1 - 0.0 - - 10 - - - -
26/08:30pm 25.1 SW 3 5 1014.2 - 0.0 - - 10 - - - -
26/08:00pm 24.6 SW 2 3 1014.3 - 0.0 - - 10 - - - -
26/07:30pm 24.9 WSW 1 2 1014.1 - 0.0 - - 10 - - - -
26/07:00pm 25.5 SSW 1 3 1013.8 - 0.0 - - 10 - - - -
26/06:30pm 25.8 SSW 2 3 1013.5 - 0.0 - - 10 - - - -
26/06:00pm 26.6 CALM 0 0 1013.1 - 0.0 - - 10 - - - -
26/05:30pm 28.2 NNE 1 2 1012.8 - 0.0 - - 10 - - - -
26/05:00pm 29.3 N 2 3 1012.8 - 0.0 - - 10 - - - -
26/04:30pm 30.1 NW 2 4 1012.6 - 0.0 - - 10 - - - -
26/04:00pm 30.1 NW 4 5 1012.6 - 0.0 - - 10 - - - -
26/03:30pm 30.9 NNW 3 6 1012.4 - 0.0 - - 10 - - - -
26/03:00pm 31.3 NW 3 6 1012.4 - 0.0 - - 10 - - - -
26/02:30pm 31.3 WNW 4 8 1012.5 - 0.0 - - 10 - - - -
26/02:00pm 31.6 WNW 4 7 1012.7 - 0.0 - - 10 - - - -
26/01:30pm 31.5 N 5 11 1013.0 - 0.0 - - 10 - - - -
26/01:00pm 30.8 E 5 7 1013.1 - 0.0 - - 10 - - - -
26/12:30pm 30.7 ENE 4 7 1013.5 - 0.0 - - 10 - - - -
26/12:00pm 30.8 ENE 3 7 1014.0 - 0.0 - - 10 - - - -
26/11:30am 30.8 E 4 7 1014.4 - 0.0 - - 10 - - - -
26/11:00am 29.6 ESE 4 8 1014.8 - 0.0 - - 10 - - - -
26/10:30am 29.8 ENE 4 9 1015.2 - 0.0 - - 10 - - - -
26/10:00am 29.1 SSE 2 5 1015.5 - 0.0 - - 10 - - - -
26/09:30am 29.0 E 1 3 1015.7 - 0.0 - - 10 - - - -
26/09:00am 27.8 SSE 4 6 1015.7 - 0.0 - - 10 - - - -
26/08:30am 26.9 SE 5 8 1015.3 - 0.0 - - 10 - - - -
26/08:00am 26.1 SE 6 9 1014.8 - 0.0 - - 10 - - - -
26/07:30am 25.0 ESE 4 7 1014.7 - 0.0 - - 10 - - - -
26/07:00am 23.9 SE 4 6 1014.3 - 0.0 - - 10 - - - -
26/06:30am 22.1 ESE 2 4 1014.2 - 0.0 - - 10 - - - -
26/06:00am 22.1 E 2 3 1013.9 - 0.0 - - 10 - - - -
26/05:30am 22.2 ESE 2 4 1013.6 - 0.0 - - 10 - - - -
26/05:00am 22.6 S 2 5 1013.3 - 0.0 - - 10 - - - -
26/04:30am 22.4 SSW 2 4 1013.1 - 0.0 - - 10 - - - -
26/04:00am 22.5 SSW 2 4 1013.0 - 0.0 - - 10 - - - -
26/03:30am 23.1 SSW 3 5 1012.8 - 0.0 - - 10 - - - -
26/03:00am 23.0 SSW 3 6 1012.8 - 0.0 - - 10 - - - -
26/02:30am 23.1 SSW 3 5 1012.8 - 0.0 - - 10 - - - -
26/02:00am 23.2 SSW 3 5 1012.9 - 0.0 - - 10 - - - -
26/01:30am 23.2 SW 3 5 1013.0 - 0.0 - - 10 - - - -
26/01:00am 23.0 SW 3 6 1013.1 - 0.0 - - 10 - - - -
26/12:30am 23.1 SSW 3 4 1013.1 - 0.0 - - 10 - - - -
26/12:00am 23.3 SSW 3 5 1013.2 - 0.0 - - 10 - - - -
 
Date/Time
WST
Temp

°C
Wind Pressure Rain
since 9am
mm
Weather Cloud Vis
km
Sea
Height
m
Swell
Dir
 
Speed
knots
Gust
knots
hPa Trend Height
m
Period
s
Dir
25/11:30pm 23.4 SSW 3 4 1013.3 - 0.0 - - 10 - - - -
25/11:00pm 23.5 SW 3 4 1013.3 - 0.0 - - 10 - - - -
25/10:30pm 23.6 SW 2 4 1013.3 - 0.0 - - 10 - - - -
25/10:00pm 24.4 SW 3 7 1013.5 - 0.0 - - 10 - - - -
25/09:30pm 24.4 WSW 3 5 1013.6 - 0.0 - - 10 - - - -
25/09:00pm 24.4 WSW 3 4 1013.5 - 0.0 - - 10 - - - -
25/08:30pm 23.9 WSW 2 3 1013.3 - 0.0 - - 10 - - - -
25/08:00pm 24.5 W 1 2 1013.2 - 0.0 - - 10 - - - -
25/07:30pm 24.8 WNW 1 2 1012.9 - 0.0 - - 10 - - - -
25/07:00pm 25.3 CALM 0 1 1012.7 - 0.0 - - 10 - - - -
25/06:30pm 26.0 WNW 1 2 1012.4 - 0.0 - - 10 - - - -
25/06:00pm 26.7 W 1 2 1012.2 - 0.0 - - 10 - - - -
25/05:30pm 27.4 W 2 4 1011.9 - 0.0 - - 10 - - - -
25/05:00pm 28.6 WNW 3 6 1011.6 - 0.0 - - 10 - - - -
25/04:30pm 29.1 NW 4 6 1011.4 - 0.0 - - 10 - - - -
25/04:00pm 29.9 NW 4 7 1011.3 - 0.0 - - 10 - - - -
25/03:30pm 30.0 NW 5 8 1011.1 - 0.0 - - 10 - - - -
25/03:00pm 30.1 NW 5 9 1011.0 - 0.0 - - 10 - - - -
25/02:30pm 30.9 NW 5 8 1011.0 - 0.0 - - 10 - - - -
25/02:00pm 31.2 E 5 8 1011.1 - 0.0 - - 10 - - - -
25/01:30pm 31.6 ENE 5 7 1011.2 - 0.0 - - 10 - - - -
25/01:00pm 31.2 ENE 4 8 1011.5 - 0.0 - - 10 - - - -
25/12:30pm 31.8 ENE 4 7 1012.0 - 0.0 - - 10 - - - -
25/12:00pm 30.5 E 4 8 1012.5 - 0.0 - - 10 - - - -
25/11:30am 30.5 ESE 5 10 1012.8 - 0.0 - - 10 - - - -
25/11:00am 29.7 SE 5 9 1013.2 - 0.0 - - 10 - - - -
25/10:30am 29.3 SE 5 10 1013.5 - 0.0 - - 10 - - - -
25/10:00am 29.3 SE 6 12 1013.7 - 0.0 - - 10 - - - -
25/09:30am 29.0 SE 5 11 1013.9 - 0.0 - - 10 - - - -
25/09:00am 28.3 SE 4 7 1013.8 - 0.0 - - 10 - - - -
25/08:30am 27.0 SE 4 6 1013.9 - 0.0 - - 10 - - - -
25/08:00am 25.8 SE 3 5 1013.7 - 0.0 - - 10 - - - -
25/07:30am 24.2 SE 3 6 1013.4 - 0.0 - - 10 - - - -
25/07:00am 23.2 ESE 3 4 1013.4 - 0.0 - - 10 - - - -
25/06:30am 21.7 ESE 2 4 1013.1 - 0.0 - - 10 - - - -
25/06:00am 21.3 ESE 3 5 1012.9 - 0.0 - - 10 - - - -
25/05:30am 21.2 SSE 2 4 1012.6 - 0.0 - - 10 - - - -
25/05:00am 20.7 SSE 2 3 1012.4 - 0.0 - - 10 - - - -
25/04:30am 20.2 SE 2 4 1012.2 - 0.0 - - 10 - - - -
25/04:00am 20.9 SE 2 4 1012.1 - 0.0 - - 10 - - - -
25/03:30am 20.5 SE 2 2 1012.0 - 0.0 - - 10 - - - -
25/03:00am 20.3 SSE 1 2 1011.9 - 0.0 - - 10 - - - -
25/02:30am 20.5 SSW 2 3 1011.7 - 0.0 - - 10 - - - -
25/02:00am 21.0 SSW 2 4 1011.9 - 0.0 - - 10 - - - -
25/01:30am 21.0 SSW 2 4 1012.1 - 0.0 - - 10 - - - -
25/01:00am 21.5 SSW 2 4 1012.4 - 0.0 - - 10 - - - -
25/12:30am 21.7 SSW 2 4 1012.6 - 0.0 - - 10 - - - -

Other Formats:

Comma delimited format used in spreadsheet applications
http://www.bom.gov.au/fwo/IDW60701/IDW60701.99206.axf

JavaScript Object Notation format (JSON) in row-major order
http://www.bom.gov.au/fwo/IDW60701/IDW60701.99206.json